Terminal Aerodrome Forecast
Issued by NWS

Home | Current Version | Previous Version | Graphics & Text | Print | Product List | Glossary On
Versions: 1 2 3 4 5 6 7 8 9 10 11 12 13 14 15 16 17 18
000
FTUS43 KFGF 271557 AAA
TAFBJI
TAF AMD
KBJI 271557Z 2716/2812 23011KT P6SM FEW250
     FM271800 25013KT P6SM SCT050
     FM280900 28006KT P6SM BKN060=

USA.gov is the U.S. government's official web portal to all federal, state and local government web resources and services.